createdAt,value
2023-03-08T00:00:37.284Z,98524.16
2023-03-08T00:03:04.883Z,98529.41
2023-03-08T00:05:32.343Z,98527.75
2023-03-08T00:07:59.688Z,98525.22
2023-03-08T00:10:27.309Z,98535.78
2023-03-08T00:12:54.624Z,98533.16
2023-03-08T00:15:22.262Z,98534.03
2023-03-08T00:17:50.427Z,98538.44
2023-03-08T00:20:17.848Z,98535.09
2023-03-08T00:22:45.300Z,98531.59
2023-03-08T00:25:16.350Z,98522.97
2023-03-08T00:27:43.766Z,98541.97
2023-03-08T00:30:12.164Z,98535.16
2023-03-08T00:32:39.975Z,98533.44
2023-03-08T00:35:08.076Z,98535.97
2023-03-08T00:37:35.474Z,98533.38
2023-03-08T00:40:03.977Z,98544.06
2023-03-08T00:42:31.390Z,98537.97
2023-03-08T00:44:59.290Z,98543.16
2023-03-08T00:47:28.402Z,98535.38
2023-03-08T00:49:55.754Z,98532.66
2023-03-08T00:52:23.096Z,98516.34
2023-03-08T00:54:50.770Z,98533.00
2023-03-08T00:57:18.231Z,98529.59
2023-03-08T00:59:45.682Z,98544.47
2023-03-08T01:02:13.611Z,98540.91
2023-03-08T01:04:40.995Z,98537.37
2023-03-08T01:07:08.404Z,98537.44
2023-03-08T01:09:38.534Z,98526.19
2023-03-08T01:12:06.906Z,98532.34
2023-03-08T01:14:34.240Z,98535.75
2023-03-08T01:17:01.920Z,98532.19
2023-03-08T01:19:29.833Z,98531.34
2023-03-08T01:21:58.492Z,98546.03
2023-03-08T01:24:26.149Z,98547.81
2023-03-08T01:26:55.771Z,98550.31
2023-03-08T01:29:23.166Z,98564.97
2023-03-08T01:31:50.838Z,98559.87
2023-03-08T01:34:18.281Z,98569.31
2023-03-08T01:36:45.687Z,98575.37
2023-03-08T01:39:13.335Z,98577.06
2023-03-08T01:41:40.733Z,98572.72
2023-03-08T01:44:15.253Z,98571.00
2023-03-08T01:46:43.681Z,98568.37
2023-03-08T01:49:20.771Z,98585.56
2023-03-08T01:52:11.571Z,98576.06
2023-03-08T01:54:58.904Z,98595.00
2023-03-08T01:57:40.793Z,98588.94
2023-03-08T02:00:11.405Z,98589.00
2023-03-08T02:02:50.022Z,98588.00
2023-03-08T02:05:18.530Z,98593.16
2023-03-08T02:07:46.806Z,98596.56
2023-03-08T02:10:14.637Z,98594.84
2023-03-08T02:12:42.674Z,98593.94
2023-03-08T02:15:14.121Z,98595.47
2023-03-08T02:17:43.251Z,98595.38
2023-03-08T02:20:16.578Z,98585.94
2023-03-08T02:22:46.626Z,98591.19
2023-03-08T02:25:16.606Z,98593.72
2023-03-08T02:27:44.396Z,98594.53
2023-03-08T02:30:14.146Z,98586.75
2023-03-08T02:32:41.899Z,98591.87
2023-03-08T02:35:09.808Z,98593.56
2023-03-08T02:37:37.176Z,98600.53
2023-03-08T02:40:05.400Z,98607.53
2023-03-08T02:42:33.241Z,98610.97
2023-03-08T02:45:00.614Z,98610.84
2023-03-08T02:47:28.250Z,98614.31
2023-03-08T02:49:55.632Z,98628.97
2023-03-08T02:52:23.568Z,98628.16
2023-03-08T02:54:51.502Z,98629.81
2023-03-08T02:57:19.950Z,98628.94
2023-03-08T02:59:47.335Z,98629.91
2023-03-08T03:02:15.553Z,98631.59
2023-03-08T03:04:42.990Z,98645.37
2023-03-08T03:07:10.433Z,98642.63
2023-03-08T03:09:38.584Z,98640.12
2023-03-08T03:12:06.214Z,98646.16
2023-03-08T03:14:34.420Z,98648.72
2023-03-08T03:17:02.511Z,98651.37
2023-03-08T03:19:29.985Z,98660.06
2023-03-08T03:21:57.577Z,98666.16
2023-03-08T03:24:25.364Z,98662.59
2023-03-08T03:26:53.040Z,98679.84
2023-03-08T03:29:20.858Z,98685.84
2023-03-08T03:31:49.842Z,98677.22
2023-03-08T03:34:17.348Z,98688.50
2023-03-08T03:36:45.353Z,98675.56
2023-03-08T03:39:13.013Z,98682.41
2023-03-08T03:41:40.705Z,98671.19
2023-03-08T03:44:08.213Z,98673.81
2023-03-08T03:46:36.064Z,98664.28
2023-03-08T03:49:04.282Z,98656.78
2023-03-08T03:51:32.499Z,98649.94
2023-03-08T03:54:00.946Z,98653.47
2023-03-08T03:56:29.182Z,98631.94
2023-03-08T03:58:57.094Z,98638.06
2023-03-08T04:01:28.027Z,98644.84
2023-03-08T04:03:57.525Z,98653.44
2023-03-08T04:06:28.089Z,98650.81
2023-03-08T04:09:06.775Z,98660.25
2023-03-08T04:11:39.040Z,98667.16
2023-03-08T04:14:07.681Z,98675.75
2023-03-08T04:16:37.307Z,98668.84
2023-03-08T04:19:07.737Z,98669.72
2023-03-08T04:21:35.577Z,98679.19
2023-03-08T04:24:03.575Z,98695.53
2023-03-08T04:26:31.411Z,98690.37
2023-03-08T04:29:00.020Z,98701.59
2023-03-08T04:31:29.536Z,98702.44
2023-03-08T04:34:00.791Z,98716.22
2023-03-08T04:36:28.990Z,98705.00
2023-03-08T04:38:57.521Z,98716.34
2023-03-08T04:41:25.768Z,98721.50
2023-03-08T04:43:56.021Z,98712.03
2023-03-08T04:46:26.839Z,98704.19
2023-03-08T04:48:55.909Z,98714.53
2023-03-08T04:51:25.564Z,98713.66
2023-03-08T04:53:53.818Z,98701.59
2023-03-08T04:56:21.791Z,98705.03
2023-03-08T04:58:49.468Z,98706.75
2023-03-08T05:01:23.129Z,98705.87
2023-03-08T05:03:52.875Z,98693.84
2023-03-08T05:06:23.529Z,98697.28
2023-03-08T05:08:51.310Z,98688.59
2023-03-08T05:11:21.858Z,98690.34
2023-03-08T05:13:49.765Z,98698.13
2023-03-08T05:16:17.923Z,98700.72
2023-03-08T05:18:45.909Z,98704.13
2023-03-08T05:21:16.219Z,98703.31
2023-03-08T05:23:44.374Z,98694.59
2023-03-08T05:26:14.697Z,98689.47
2023-03-08T05:28:42.189Z,98708.56
2023-03-08T05:31:15.806Z,98710.28
2023-03-08T05:33:46.425Z,98717.94
2023-03-08T05:36:15.167Z,98719.72
2023-03-08T05:38:42.974Z,98730.88
2023-03-08T05:41:16.026Z,98733.53
2023-03-08T05:43:44.524Z,98740.44
2023-03-08T05:46:17.231Z,98745.59
2023-03-08T05:48:45.290Z,98752.44
2023-03-08T05:51:15.837Z,98758.53
2023-03-08T05:53:44.184Z,98762.84
2023-03-08T05:56:14.781Z,98759.37
2023-03-08T05:58:44.726Z,98761.97
2023-03-08T06:01:17.160Z,98767.94
2023-03-08T06:03:46.143Z,98768.81
2023-03-08T06:06:14.620Z,98773.91
2023-03-08T06:08:42.572Z,98773.13
2023-03-08T06:11:10.901Z,98785.12
2023-03-08T06:13:38.576Z,98783.41
2023-03-08T06:16:06.777Z,98797.19
2023-03-08T06:18:39.962Z,98798.84
2023-03-08T06:21:08.951Z,98797.13
2023-03-08T06:23:38.448Z,98799.66
2023-03-08T06:26:07.161Z,98790.13
2023-03-08T06:28:35.789Z,98791.84
2023-03-08T06:31:03.940Z,98792.59
2023-03-08T06:33:32.981Z,98793.44
2023-03-08T06:36:11.517Z,98795.09
2023-03-08T06:38:40.527Z,98797.56
2023-03-08T06:41:08.855Z,98799.22
2023-03-08T06:43:36.678Z,98800.88
2023-03-08T06:46:12.445Z,98803.34
2023-03-08T06:48:40.737Z,98810.28
2023-03-08T06:51:08.831Z,98803.28
2023-03-08T06:53:38.147Z,98815.34
2023-03-08T06:56:07.780Z,98819.00
2023-03-08T06:58:36.515Z,98807.56
2023-03-08T07:01:05.603Z,98811.84
2023-03-08T07:03:33.540Z,98824.00
2023-03-08T07:06:03.231Z,98836.75
2023-03-08T07:08:31.163Z,98831.53
2023-03-08T07:10:59.369Z,98832.34
2023-03-08T07:13:28.970Z,98847.84
2023-03-08T07:15:57.184Z,98847.63
2023-03-08T07:18:25.258Z,98842.16
2023-03-08T07:20:55.213Z,98846.44
2023-03-08T07:23:22.917Z,98854.03
2023-03-08T07:25:50.581Z,98854.00
2023-03-08T07:28:18.376Z,98860.78
2023-03-08T07:30:50.736Z,98855.50
2023-03-08T07:33:20.391Z,98850.66
2023-03-08T07:35:48.027Z,98850.47
2023-03-08T07:38:16.213Z,98848.50
2023-03-08T07:40:44.253Z,98853.34
2023-03-08T07:43:11.924Z,98863.63
2023-03-08T07:45:43.290Z,98869.81
2023-03-08T07:48:11.087Z,98878.63
2023-03-08T07:50:38.446Z,98881.75
2023-03-08T07:53:07.790Z,98873.66
2023-03-08T07:55:37.132Z,98882.47
2023-03-08T07:58:04.708Z,98886.75
2023-03-08T08:00:32.099Z,98893.25
2023-03-08T08:02:59.907Z,98889.97
2023-03-08T08:05:27.537Z,98901.00
2023-03-08T08:07:55.397Z,98905.25
2023-03-08T08:10:23.087Z,98900.19
2023-03-08T08:12:50.632Z,98901.94
2023-03-08T08:15:19.172Z,98896.84
2023-03-08T08:17:46.836Z,98899.97
2023-03-08T08:20:14.727Z,98907.78
2023-03-08T08:22:42.225Z,98904.37
2023-03-08T08:25:11.310Z,98910.28
2023-03-08T08:27:38.902Z,98910.00
2023-03-08T08:30:07.153Z,98912.84
2023-03-08T08:32:35.434Z,98908.41
2023-03-08T08:35:02.950Z,98906.16
2023-03-08T08:37:32.123Z,98904.22
2023-03-08T08:39:59.867Z,98903.44
2023-03-08T08:42:27.299Z,98901.94
2023-03-08T08:44:55.823Z,98898.31
2023-03-08T08:47:23.512Z,98899.00
2023-03-08T08:49:51.981Z,98889.31
2023-03-08T08:52:19.647Z,98887.19
2023-03-08T08:54:47.301Z,98888.72
2023-03-08T08:57:14.746Z,98892.66
2023-03-08T08:59:42.159Z,98889.44
2023-03-08T09:02:11.623Z,98884.25
2023-03-08T09:04:39.172Z,98874.97
2023-03-08T09:07:07.515Z,98864.28
2023-03-08T09:09:35.299Z,98867.69
2023-03-08T09:12:02.695Z,98861.56
2023-03-08T09:14:30.154Z,98871.34
2023-03-08T09:16:57.918Z,98876.00
2023-03-08T09:19:25.581Z,98875.72
2023-03-08T09:21:54.679Z,98877.97
2023-03-08T09:24:22.314Z,98878.13
2023-03-08T09:26:49.778Z,98874.84
2023-03-08T09:29:17.202Z,98865.56
2023-03-08T09:31:45.434Z,98876.16
2023-03-08T09:34:14.884Z,98871.06
2023-03-08T09:36:42.604Z,98870.94
2023-03-08T09:39:12.011Z,98868.88
2023-03-08T09:41:49.681Z,98866.91
2023-03-08T09:44:30.525Z,98866.03
2023-03-08T09:47:14.777Z,98864.91
2023-03-08T09:49:44.634Z,98862.06
2023-03-08T09:52:41.811Z,98851.63
2023-03-08T09:55:20.603Z,98849.38
2023-03-08T09:57:52.921Z,98859.53
2023-03-08T10:00:23.561Z,98865.72
2023-03-08T10:02:56.509Z,98847.31
2023-03-08T10:05:29.772Z,98859.56
2023-03-08T10:08:10.508Z,98852.84
2023-03-08T10:11:02.160Z,98854.16
2023-03-08T10:13:38.328Z,98849.13
2023-03-08T10:16:28.449Z,98842.28
2023-03-08T10:19:12.223Z,98840.16
2023-03-08T10:21:41.869Z,98839.34
2023-03-08T10:24:31.329Z,98836.72
2023-03-08T10:27:22.779Z,98835.50
2023-03-08T10:29:52.161Z,98836.47
2023-03-08T10:32:20.451Z,98840.38
2023-03-08T10:34:48.525Z,98846.59
2023-03-08T10:37:16.478Z,98857.19
2023-03-08T10:39:54.781Z,98852.75
2023-03-08T10:42:25.380Z,98846.41
2023-03-08T10:44:59.465Z,98846.84
2023-03-08T10:47:28.583Z,98854.78
2023-03-08T10:50:16.466Z,98847.59
2023-03-08T10:52:45.448Z,98847.94
2023-03-08T10:55:18.786Z,98832.94
2023-03-08T10:57:54.575Z,98822.66
2023-03-08T11:00:40.156Z,98826.34
2023-03-08T11:03:20.098Z,98818.06
2023-03-08T11:06:02.976Z,98818.88
2023-03-08T11:08:41.643Z,98819.03
2023-03-08T11:11:11.678Z,98826.84
2023-03-08T11:13:46.784Z,98811.37
2023-03-08T11:16:29.951Z,98802.16
2023-03-08T11:19:42.622Z,98799.97
2023-03-08T11:22:27.408Z,98802.41
2023-03-08T11:25:35.252Z,98792.78
2023-03-08T11:28:36.322Z,98795.59
2023-03-08T11:31:13.386Z,98799.53
2023-03-08T11:34:05.887Z,98790.38
2023-03-08T11:36:42.927Z,98798.81
2023-03-08T11:39:20.763Z,98811.37
2023-03-08T11:42:12.480Z,98800.62
2023-03-08T11:45:01.223Z,98792.69
2023-03-08T11:47:38.339Z,98787.63
2023-03-08T11:50:11.635Z,98772.00
2023-03-08T11:52:46.455Z,98774.25
2023-03-08T11:55:32.288Z,98773.41
2023-03-08T11:58:18.876Z,98771.25
2023-03-08T12:00:47.447Z,98761.09
2023-03-08T12:03:18.448Z,98763.72
2023-03-08T12:06:02.389Z,98761.81
2023-03-08T12:08:41.725Z,98760.84
2023-03-08T12:11:19.822Z,98757.69
2023-03-08T12:13:52.774Z,98766.00
2023-03-08T12:16:32.674Z,98758.63
2023-03-08T12:19:23.597Z,98755.72
2023-03-08T12:22:18.020Z,98744.94
2023-03-08T12:24:51.293Z,98752.78
2023-03-08T12:27:27.877Z,98740.66
2023-03-08T12:30:01.555Z,98744.34
2023-03-08T12:32:29.808Z,98741.34
2023-03-08T12:35:04.518Z,98741.28
2023-03-08T12:37:32.666Z,98735.34
2023-03-08T12:40:27.336Z,98732.44
2023-03-08T12:43:13.331Z,98726.19
2023-03-08T12:45:43.227Z,98717.19
2023-03-08T12:48:29.449Z,98711.41
2023-03-08T12:51:01.489Z,98706.88
2023-03-08T12:53:42.122Z,98692.94
2023-03-08T12:56:09.870Z,98697.75
2023-03-08T12:58:49.853Z,98683.06
2023-03-08T13:01:39.552Z,98676.06
2023-03-08T13:04:41.500Z,98656.78
2023-03-08T13:07:33.237Z,98650.00
2023-03-08T13:10:18.898Z,98639.22
2023-03-08T13:13:35.313Z,98623.44
2023-03-08T13:16:07.962Z,98610.56
2023-03-08T13:18:41.970Z,98610.97
2023-03-08T13:21:18.866Z,98600.00
2023-03-08T13:23:56.325Z,98611.84
2023-03-08T13:27:01.771Z,98601.31
2023-03-08T13:29:32.420Z,98601.38
2023-03-08T13:32:15.575Z,98587.38
2023-03-08T13:34:46.297Z,98586.00
2023-03-08T13:37:24.410Z,98575.16
2023-03-08T13:39:54.159Z,98577.50
2023-03-08T13:42:24.892Z,98564.59
2023-03-08T13:44:53.969Z,98564.81
2023-03-08T13:47:22.669Z,98552.97
2023-03-08T13:49:51.904Z,98545.59
2023-03-08T13:52:23.471Z,98547.41
2023-03-08T13:54:54.175Z,98547.81
2023-03-08T13:57:34.070Z,98545.22
2023-03-08T14:00:19.784Z,98552.22
2023-03-08T14:02:47.889Z,98546.91
2023-03-08T14:05:22.731Z,98529.25
2023-03-08T14:08:04.688Z,98539.91
2023-03-08T14:10:37.288Z,98550.38
2023-03-08T14:13:05.836Z,98543.38
2023-03-08T14:15:35.643Z,98548.72
2023-03-08T14:18:04.763Z,98540.50
2023-03-08T14:20:32.732Z,98552.81
2023-03-08T14:23:00.190Z,98541.66
2023-03-08T14:25:32.036Z,98541.56
2023-03-08T14:27:59.757Z,98546.78
2023-03-08T14:30:29.633Z,98556.97
2023-03-08T14:33:19.890Z,98556.75
2023-03-08T14:35:57.657Z,98546.69
2023-03-08T14:38:29.254Z,98558.63
2023-03-08T14:40:57.518Z,98555.16
2023-03-08T14:43:26.263Z,98562.56
2023-03-08T14:45:59.767Z,98564.38
2023-03-08T14:48:31.443Z,98559.00
2023-03-08T14:50:58.763Z,98549.94
2023-03-08T14:53:32.123Z,98558.84
2023-03-08T14:56:01.714Z,98541.84
2023-03-08T14:58:31.705Z,98549.25
2023-03-08T15:01:01.411Z,98547.78
2023-03-08T15:03:30.562Z,98545.41
2023-03-08T15:05:58.354Z,98541.44
2023-03-08T15:08:25.805Z,98525.50
2023-03-08T15:10:53.760Z,98516.38
2023-03-08T15:13:23.101Z,98512.97
2023-03-08T15:15:51.117Z,98512.41
2023-03-08T15:18:18.914Z,98504.59
2023-03-08T15:20:49.359Z,98509.31
2023-03-08T15:23:20.937Z,98506.50
2023-03-08T15:25:48.798Z,98504.22
2023-03-08T15:28:17.711Z,98502.50
2023-03-08T15:30:45.079Z,98501.47
2023-03-08T15:33:12.809Z,98498.84
2023-03-08T15:35:40.744Z,98487.34
2023-03-08T15:38:14.652Z,98489.94
2023-03-08T15:40:42.402Z,98475.25
2023-03-08T15:43:10.300Z,98470.66
2023-03-08T15:45:37.809Z,98467.41
2023-03-08T15:48:07.799Z,98464.72
2023-03-08T15:50:36.498Z,98457.47
2023-03-08T15:53:04.140Z,98455.66
2023-03-08T15:55:32.196Z,98443.19
2023-03-08T15:57:59.809Z,98449.56
2023-03-08T16:00:27.881Z,98443.38
2023-03-08T16:02:55.976Z,98445.59
2023-03-08T16:05:25.064Z,98440.84
2023-03-08T16:07:54.430Z,98445.22
2023-03-08T16:10:22.823Z,98445.09
2023-03-08T16:12:50.200Z,98444.13
2023-03-08T16:15:17.671Z,98437.06
2023-03-08T16:17:45.831Z,98435.69
2023-03-08T16:20:14.388Z,98437.75
2023-03-08T16:22:41.877Z,98437.66
2023-03-08T16:25:10.045Z,98441.03
2023-03-08T16:27:38.363Z,98445.06
2023-03-08T16:30:06.331Z,98430.91
2023-03-08T16:32:34.079Z,98418.78
2023-03-08T16:35:01.629Z,98432.91
2023-03-08T16:37:29.065Z,98428.53
2023-03-08T16:39:59.123Z,98425.84
2023-03-08T16:42:26.489Z,98418.78
2023-03-08T16:44:55.308Z,98424.44
2023-03-08T16:47:24.157Z,98434.09
2023-03-08T16:49:51.684Z,98430.47
2023-03-08T16:52:19.566Z,98422.16
2023-03-08T16:54:47.281Z,98419.56
2023-03-08T16:57:19.333Z,98422.44
2023-03-08T16:59:47.773Z,98424.88
2023-03-08T17:02:17.654Z,98422.16
2023-03-08T17:04:45.416Z,98418.78
2023-03-08T17:07:13.612Z,98419.72
2023-03-08T17:09:41.240Z,98416.97
2023-03-08T17:12:09.237Z,98416.88
2023-03-08T17:14:36.999Z,98415.16
2023-03-08T17:17:05.034Z,98416.88
2023-03-08T17:19:32.639Z,98414.94
2023-03-08T17:22:00.318Z,98421.38
2023-03-08T17:24:30.465Z,98420.88
2023-03-08T17:26:58.526Z,98415.63
2023-03-08T17:29:27.610Z,98408.91
2023-03-08T17:31:54.935Z,98414.44
2023-03-08T17:34:23.081Z,98408.56
2023-03-08T17:36:51.578Z,98409.09
2023-03-08T17:39:19.554Z,98421.59
2023-03-08T17:41:47.173Z,98420.41
2023-03-08T17:44:15.093Z,98418.84
2023-03-08T17:46:42.606Z,98418.84
2023-03-08T17:49:11.971Z,98419.66
2023-03-08T17:51:39.639Z,98420.75
2023-03-08T17:54:07.428Z,98413.91
2023-03-08T17:56:36.505Z,98416.53
2023-03-08T17:59:04.253Z,98423.81
2023-03-08T18:01:31.975Z,98409.00
2023-03-08T18:04:00.364Z,98403.00
2023-03-08T18:06:33.120Z,98401.94
2023-03-08T18:09:03.923Z,98392.50
2023-03-08T18:11:31.338Z,98380.81
2023-03-08T18:13:58.668Z,98387.88
2023-03-08T18:16:26.370Z,98393.22
2023-03-08T18:18:53.799Z,98393.13
2023-03-08T18:21:21.446Z,98408.16
2023-03-08T18:23:49.247Z,98408.16
2023-03-08T18:26:17.459Z,98410.16
2023-03-08T18:28:44.886Z,98397.59
2023-03-08T18:31:15.714Z,98397.44
2023-03-08T18:33:44.081Z,98386.19
2023-03-08T18:36:11.693Z,98391.34
2023-03-08T18:38:39.416Z,98380.72
2023-03-08T18:41:17.580Z,98388.56
2023-03-08T18:43:45.359Z,98381.53
2023-03-08T18:46:13.706Z,98375.75
2023-03-08T18:48:42.139Z,98379.28
2023-03-08T18:51:09.910Z,98373.81
2023-03-08T18:53:37.874Z,98371.53
2023-03-08T18:56:05.783Z,98370.66
2023-03-08T18:58:34.044Z,98368.50
2023-03-08T19:01:02.966Z,98360.19
2023-03-08T19:03:30.624Z,98357.84
2023-03-08T19:06:02.937Z,98358.53
2023-03-08T19:08:31.235Z,98360.25
2023-03-08T19:10:59.482Z,98356.75
2023-03-08T19:13:26.848Z,98360.06
2023-03-08T19:15:54.251Z,98353.59
2023-03-08T19:18:23.552Z,98350.28
2023-03-08T19:20:51.003Z,98346.84
2023-03-08T19:23:18.336Z,98336.03
2023-03-08T19:26:04.552Z,98344.34
2023-03-08T19:28:32.034Z,98350.25
2023-03-08T19:30:59.733Z,98342.97
2023-03-08T19:33:31.622Z,98342.44
2023-03-08T19:35:59.486Z,98350.84
2023-03-08T19:38:27.327Z,98346.09
2023-03-08T19:40:55.118Z,98347.37
2023-03-08T19:43:22.481Z,98349.84
2023-03-08T19:45:50.263Z,98345.69
2023-03-08T19:48:17.714Z,98350.41
2023-03-08T19:50:46.137Z,98348.63
2023-03-08T19:53:13.764Z,98337.13
2023-03-08T19:55:59.146Z,98338.53
2023-03-08T19:58:26.830Z,98331.41
2023-03-08T20:01:02.644Z,98321.22
2023-03-08T20:03:30.591Z,98315.81
2023-03-08T20:05:58.309Z,98321.69
2023-03-08T20:08:26.477Z,98324.91
2023-03-08T20:10:54.219Z,98331.22
2023-03-08T20:13:21.617Z,98336.38
2023-03-08T20:15:49.225Z,98334.19
2023-03-08T20:18:17.021Z,98338.03
2023-03-08T20:20:45.044Z,98346.75
2023-03-08T20:23:12.444Z,98351.22
2023-03-08T20:25:43.477Z,98356.66
2023-03-08T20:28:11.182Z,98355.66
2023-03-08T20:30:39.235Z,98348.56
2023-03-08T20:33:07.012Z,98336.75
2023-03-08T20:35:34.413Z,98338.34
2023-03-08T20:38:01.796Z,98324.91
2023-03-08T20:40:29.527Z,98323.69
2023-03-08T20:43:00.827Z,98327.28
2023-03-08T20:45:28.782Z,98325.88
2023-03-08T20:47:57.477Z,98320.09
2023-03-08T20:50:27.012Z,98336.09
2023-03-08T20:52:54.435Z,98321.16
2023-03-08T20:55:22.093Z,98329.47
2023-03-08T20:57:51.142Z,98315.31
2023-03-08T21:00:18.568Z,98315.53
2023-03-08T21:02:46.795Z,98310.09
2023-03-08T21:05:14.247Z,98316.06
2023-03-08T21:07:41.684Z,98315.22
2023-03-08T21:10:09.860Z,98315.31
2023-03-08T21:12:39.059Z,98327.13
2023-03-08T21:15:07.378Z,98326.91
2023-03-08T21:17:37.840Z,98321.69
2023-03-08T21:20:06.132Z,98311.09
2023-03-08T21:22:33.643Z,98320.75
2023-03-08T21:25:01.331Z,98322.72
2023-03-08T21:27:28.685Z,98318.28
2023-03-08T21:29:56.087Z,98306.56
2023-03-08T21:32:24.540Z,98306.09
2023-03-08T21:34:54.055Z,98304.34
2023-03-08T21:37:21.441Z,98297.19
2023-03-08T21:39:49.263Z,98300.25
2023-03-08T21:42:16.671Z,98307.97
2023-03-08T21:44:44.155Z,98301.19
2023-03-08T21:47:12.001Z,98306.16
2023-03-08T21:49:39.709Z,98302.34
2023-03-08T21:52:07.327Z,98294.09
2023-03-08T21:54:35.022Z,98281.69
2023-03-08T21:57:02.665Z,98273.19
2023-03-08T21:59:30.476Z,98257.97
2023-03-08T22:01:58.805Z,98260.72
2023-03-08T22:04:27.252Z,98246.03
2023-03-08T22:06:55.651Z,98243.25
2023-03-08T22:09:26.518Z,98262.16
2023-03-08T22:11:54.423Z,98252.34
2023-03-08T22:14:21.777Z,98249.63
2023-03-08T22:16:49.424Z,98254.56
2023-03-08T22:19:17.983Z,98252.31
2023-03-08T22:21:45.418Z,98254.41
2023-03-08T22:24:12.914Z,98256.84
2023-03-08T22:26:40.531Z,98263.00
2023-03-08T22:29:07.931Z,98262.75
2023-03-08T22:31:35.484Z,98266.62
2023-03-08T22:34:03.466Z,98265.59
2023-03-08T22:36:30.842Z,98265.44
2023-03-08T22:38:58.221Z,98270.44
2023-03-08T22:41:27.373Z,98272.91
2023-03-08T22:43:54.732Z,98281.22
2023-03-08T22:46:26.988Z,98282.00
2023-03-08T22:48:56.533Z,98291.25
2023-03-08T22:51:24.825Z,98295.72
2023-03-08T22:53:52.422Z,98296.53
2023-03-08T22:56:30.195Z,98287.59
2023-03-08T22:58:58.147Z,98290.00
2023-03-08T23:01:26.414Z,98297.78
2023-03-08T23:03:56.766Z,98293.09
2023-03-08T23:06:27.985Z,98277.69
2023-03-08T23:08:57.222Z,98272.59
2023-03-08T23:11:25.044Z,98274.06
2023-03-08T23:13:52.737Z,98278.84
2023-03-08T23:16:21.075Z,98275.28
2023-03-08T23:18:50.685Z,98270.44
2023-03-08T23:21:20.301Z,98263.87
2023-03-08T23:23:48.127Z,98266.72
2023-03-08T23:26:21.257Z,98267.84
2023-03-08T23:28:48.890Z,98268.00
2023-03-08T23:31:21.707Z,98270.72
2023-03-08T23:33:50.133Z,98269.81
2023-03-08T23:36:20.041Z,98269.38
2023-03-08T23:38:48.114Z,98274.22
2023-03-08T23:41:16.753Z,98268.00
2023-03-08T23:43:44.138Z,98260.75
2023-03-08T23:46:16.943Z,98263.69
2023-03-08T23:48:46.062Z,98269.63
2023-03-08T23:51:18.452Z,98272.94
2023-03-08T23:53:50.989Z,98267.22
2023-03-08T23:56:26.511Z,98265.72
2023-03-08T23:58:58.897Z,98253.59
